createdAt,value
2022-12-15T00:02:13.314Z,22.55
2022-12-15T00:04:58.271Z,22.75
2022-12-15T00:07:43.079Z,23.63
2022-12-15T00:10:28.043Z,23.52
2022-12-15T00:13:12.772Z,23.27
2022-12-15T00:15:57.802Z,24.23
2022-12-15T00:18:42.902Z,24.63
2022-12-15T00:21:28.334Z,24.83
2022-12-15T00:24:13.850Z,24.05
2022-12-15T00:26:59.474Z,23.98
2022-12-15T00:29:44.606Z,25.38
2022-12-15T00:32:29.416Z,25.27
2022-12-15T00:35:14.484Z,24.30
2022-12-15T00:37:59.168Z,24.10
2022-12-15T00:40:26.131Z,24.42
2022-12-15T00:42:52.651Z,23.73
2022-12-15T00:45:19.081Z,24.92
2022-12-15T00:47:45.584Z,24.27
2022-12-15T00:50:30.613Z,24.95
2022-12-15T00:53:15.566Z,23.13
2022-12-15T00:56:00.721Z,23.92
2022-12-15T00:58:45.540Z,22.45
2022-12-15T01:01:30.625Z,23.48
2022-12-15T01:04:15.766Z,22.08
2022-12-15T01:07:00.964Z,22.15
2022-12-15T01:09:46.334Z,22.33
2022-12-15T01:12:31.274Z,21.52
2022-12-15T01:15:16.626Z,22.10
2022-12-15T01:18:01.762Z,21.80
2022-12-15T01:20:32.766Z,20.75
2022-12-15T01:22:59.610Z,22.50
2022-12-15T01:25:26.335Z,23.33
2022-12-15T01:27:56.023Z,22.50
2022-12-15T01:30:25.365Z,21.23
2022-12-15T01:32:52.301Z,22.40
2022-12-15T01:35:20.252Z,21.98
2022-12-15T01:37:46.777Z,22.75
2022-12-15T01:40:37.777Z,22.85
2022-12-15T01:43:09.618Z,21.70
2022-12-15T01:45:53.048Z,23.10
2022-12-15T01:48:26.335Z,20.77
2022-12-15T01:51:02.475Z,22.30
2022-12-15T01:53:34.897Z,23.02
2022-12-15T01:56:03.909Z,22.35
2022-12-15T01:58:31.213Z,23.45
2022-12-15T02:00:58.450Z,23.35
2022-12-15T02:03:25.473Z,22.88
2022-12-15T02:05:53.119Z,23.27
2022-12-15T02:08:19.805Z,22.52
2022-12-15T02:11:18.745Z,21.73
2022-12-15T02:13:59.829Z,22.48
2022-12-15T02:16:26.442Z,20.63
2022-12-15T02:19:04.754Z,21.88
2022-12-15T02:21:50.110Z,20.23
2022-12-15T02:24:30.519Z,20.55
2022-12-15T02:27:13.595Z,20.88
2022-12-15T02:30:17.998Z,20.88
2022-12-15T02:32:57.049Z,21.83
2022-12-15T02:35:40.930Z,20.90
2022-12-15T02:38:09.451Z,21.02
2022-12-15T02:40:37.206Z,22.17
2022-12-15T02:43:06.138Z,22.83
2022-12-15T02:46:17.030Z,22.42
2022-12-15T02:51:20.951Z,20.45
2022-12-15T02:54:14.567Z,21.90
2022-12-15T02:57:06.172Z,21.98
2022-12-15T03:00:10.735Z,22.40
2022-12-15T03:02:41.914Z,21.30
2022-12-15T03:05:09.522Z,23.30
2022-12-15T03:07:36.063Z,21.10
2022-12-15T03:10:07.192Z,22.08
2022-12-15T03:12:33.755Z,22.08
2022-12-15T03:15:00.202Z,21.90
2022-12-15T03:17:26.789Z,21.50
2022-12-15T03:19:53.310Z,21.98
2022-12-15T03:22:20.140Z,21.60
2022-12-15T03:24:46.705Z,21.80
2022-12-15T03:27:13.239Z,20.40
2022-12-15T03:29:40.113Z,22.67
2022-12-15T03:32:06.903Z,21.10
2022-12-15T03:34:33.411Z,20.85
2022-12-15T03:36:59.912Z,21.50
2022-12-15T03:39:26.616Z,20.60
2022-12-15T03:41:53.114Z,20.58
2022-12-15T03:44:19.621Z,20.48
2022-12-15T03:46:46.139Z,21.08
2022-12-15T03:49:12.638Z,21.27
2022-12-15T03:51:39.130Z,20.73
2022-12-15T03:54:06.103Z,21.42
2022-12-15T03:56:34.788Z,21.23
2022-12-15T03:59:02.305Z,20.85
2022-12-15T04:01:34.287Z,20.65
2022-12-15T04:04:02.343Z,20.95
2022-12-15T04:06:30.044Z,21.40
2022-12-15T04:08:56.654Z,20.85
2022-12-15T04:11:23.242Z,20.92
2022-12-15T04:13:50.949Z,21.13
2022-12-15T04:16:20.167Z,21.95
2022-12-15T04:19:07.570Z,22.98
2022-12-15T04:21:34.115Z,20.25
2022-12-15T04:24:19.046Z,22.00
2022-12-15T04:27:03.803Z,21.75
2022-12-15T04:29:48.754Z,21.88
2022-12-15T04:32:34.179Z,22.00
2022-12-15T04:35:19.512Z,22.40
2022-12-15T04:38:04.872Z,20.88
2022-12-15T04:40:50.110Z,21.27
2022-12-15T04:43:35.188Z,21.70
2022-12-15T04:46:20.071Z,21.02
2022-12-15T04:49:05.302Z,21.02
2022-12-15T04:51:52.055Z,21.30
2022-12-15T04:54:36.943Z,21.10
2022-12-15T04:57:22.275Z,22.05
2022-12-15T05:00:07.202Z,22.13
2022-12-15T05:02:52.141Z,20.88
2022-12-15T05:05:37.283Z,22.35
2022-12-15T05:08:22.805Z,22.05
2022-12-15T05:11:07.647Z,20.95
2022-12-15T05:13:52.483Z,21.42
2022-12-15T05:16:37.382Z,21.63
2022-12-15T05:19:22.374Z,23.10
2022-12-15T05:22:07.239Z,22.38
2022-12-15T05:24:52.012Z,23.73
2022-12-15T05:27:37.107Z,23.27
2022-12-15T05:30:22.874Z,23.75
2022-12-15T05:32:49.949Z,22.17
2022-12-15T05:35:16.527Z,22.58
2022-12-15T05:37:43.105Z,22.83
2022-12-15T05:40:10.179Z,24.00
2022-12-15T05:42:36.707Z,23.55
2022-12-15T05:45:05.510Z,23.08
2022-12-15T05:47:32.024Z,23.55
2022-12-15T05:49:58.783Z,24.88
2022-12-15T05:52:25.684Z,25.58
2022-12-15T05:54:52.436Z,25.45
2022-12-15T05:57:21.081Z,25.63
2022-12-15T05:59:47.610Z,24.80
2022-12-15T06:02:14.136Z,23.45
2022-12-15T06:04:41.000Z,22.80
2022-12-15T06:07:07.548Z,22.15
2022-12-15T06:09:34.047Z,22.23
2022-12-15T06:12:00.567Z,22.83
2022-12-15T06:14:27.009Z,21.90
2022-12-15T06:16:53.629Z,23.88
2022-12-15T06:19:21.020Z,24.40
2022-12-15T06:21:47.737Z,23.00
2022-12-15T06:24:14.340Z,24.95
2022-12-15T06:26:41.063Z,26.20
2022-12-15T06:29:10.022Z,25.30
2022-12-15T06:31:37.567Z,25.15
2022-12-15T06:34:06.158Z,25.45
2022-12-15T06:36:32.677Z,24.60
2022-12-15T06:39:01.503Z,24.95
2022-12-15T06:41:32.640Z,24.85
2022-12-15T06:44:00.362Z,25.20
2022-12-15T06:46:29.252Z,25.52
2022-12-15T06:48:56.163Z,25.65
2022-12-15T06:51:23.126Z,25.80
2022-12-15T06:53:50.819Z,25.83
2022-12-15T06:56:23.326Z,25.90
2022-12-15T06:58:55.051Z,25.83
2022-12-15T07:01:23.653Z,25.75
2022-12-15T07:03:51.223Z,25.60
2022-12-15T07:06:18.319Z,26.55
2022-12-15T07:08:52.224Z,26.40
2022-12-15T07:11:20.795Z,24.75
2022-12-15T07:13:54.109Z,25.10
2022-12-15T07:16:22.799Z,26.05
2022-12-15T07:18:49.937Z,25.30
2022-12-15T07:21:17.207Z,23.23
2022-12-15T07:24:00.518Z,24.15
2022-12-15T07:26:27.968Z,25.00
2022-12-15T07:28:54.871Z,26.98
2022-12-15T07:31:22.624Z,25.55
2022-12-15T07:33:52.599Z,26.20
2022-12-15T07:36:19.458Z,18.63
2022-12-15T07:38:50.299Z,22.52
2022-12-15T07:41:18.096Z,23.38
2022-12-15T07:43:45.494Z,23.92
2022-12-15T07:46:12.139Z,24.85
2022-12-15T07:48:38.687Z,25.20
2022-12-15T07:51:10.842Z,25.35
2022-12-15T07:53:40.182Z,25.58
2022-12-15T07:56:09.660Z,29.55
2022-12-15T07:58:37.834Z,29.30
2022-12-15T08:01:06.905Z,24.02
2022-12-15T08:03:36.003Z,22.92
2022-12-15T08:06:06.215Z,24.77
2022-12-15T08:08:35.739Z,23.48
2022-12-15T08:11:08.518Z,25.37
2022-12-15T08:16:22.803Z,25.05
2022-12-15T08:18:49.415Z,25.63
2022-12-15T08:21:16.194Z,26.45
2022-12-15T08:23:43.070Z,23.05
2022-12-15T08:26:15.165Z,24.83
2022-12-15T08:28:42.927Z,24.40
2022-12-15T08:31:12.380Z,25.48
2022-12-15T08:33:39.811Z,25.17
2022-12-15T08:36:09.261Z,25.02
2022-12-15T08:38:38.781Z,26.38
2022-12-15T08:41:13.128Z,24.92
2022-12-15T08:43:47.508Z,25.92
2022-12-15T08:46:20.181Z,24.88
2022-12-15T08:48:49.910Z,25.85
2022-12-15T08:51:17.507Z,25.20
2022-12-15T08:53:44.329Z,24.38
2022-12-15T08:56:15.752Z,25.85
2022-12-15T08:58:42.987Z,25.38
2022-12-15T09:01:22.473Z,24.52
2022-12-15T09:03:51.635Z,25.40
2022-12-15T09:06:20.784Z,26.20
2022-12-15T09:08:50.150Z,26.38
2022-12-15T09:11:17.703Z,20.40
2022-12-15T09:13:44.619Z,26.42
2022-12-15T09:16:14.784Z,25.90
2022-12-15T09:18:46.621Z,25.13
2022-12-15T09:21:14.198Z,25.98
2022-12-15T09:23:40.817Z,25.30
2022-12-15T09:26:14.524Z,24.90
2022-12-15T09:28:43.188Z,24.48
2022-12-15T09:31:17.980Z,25.60
2022-12-15T09:33:44.896Z,26.20
2022-12-15T09:36:13.179Z,26.80
2022-12-15T09:38:41.994Z,22.67
2022-12-15T09:41:10.054Z,24.58
2022-12-15T09:43:46.712Z,24.83
2022-12-15T09:46:21.362Z,25.98
2022-12-15T09:48:51.279Z,26.17
2022-12-15T09:51:19.297Z,26.83
2022-12-15T09:53:55.571Z,26.58
2022-12-15T09:56:32.673Z,26.70
2022-12-15T09:59:38.101Z,25.00
2022-12-15T10:02:38.792Z,25.52
2022-12-15T10:05:16.456Z,24.63
2022-12-15T10:07:46.341Z,25.23
2022-12-15T10:10:19.677Z,26.27
2022-12-15T10:12:57.657Z,26.52
2022-12-15T10:15:33.646Z,25.67
2022-12-15T10:18:12.944Z,23.55
2022-12-15T10:20:39.848Z,24.05
2022-12-15T10:23:13.182Z,25.65
2022-12-15T10:25:43.324Z,25.05
2022-12-15T10:28:15.927Z,27.63
2022-12-15T10:31:25.319Z,26.35
2022-12-15T10:34:01.916Z,26.73
2022-12-15T10:36:29.447Z,25.55
2022-12-15T10:38:55.921Z,26.52
2022-12-15T10:41:25.905Z,27.02
2022-12-15T10:43:54.099Z,26.52
2022-12-15T10:46:24.344Z,26.83
2022-12-15T10:48:54.629Z,24.98
2022-12-15T10:51:32.726Z,23.85
2022-12-15T10:54:01.937Z,24.98
2022-12-15T10:56:33.560Z,24.42
2022-12-15T10:59:22.310Z,26.23
2022-12-15T11:01:49.394Z,26.08
2022-12-15T11:04:30.044Z,25.08
2022-12-15T11:07:01.957Z,25.98
2022-12-15T11:09:37.261Z,26.33
2022-12-15T11:12:37.227Z,26.55
2022-12-15T11:15:23.810Z,26.63
2022-12-15T11:18:08.707Z,27.17
2022-12-15T11:20:40.167Z,27.23
2022-12-15T11:23:19.323Z,26.35
2022-12-15T11:25:55.462Z,25.60
2022-12-15T11:28:28.633Z,26.85
2022-12-15T11:31:13.043Z,27.58
2022-12-15T11:33:40.006Z,26.13
2022-12-15T11:36:37.393Z,27.83
2022-12-15T11:39:16.902Z,26.80
2022-12-15T11:42:08.054Z,26.85
2022-12-15T11:44:48.998Z,27.17
2022-12-15T11:47:40.847Z,26.02
2022-12-15T11:50:26.403Z,25.48
2022-12-15T11:53:30.764Z,25.95
2022-12-15T11:56:24.714Z,26.05
2022-12-15T11:59:24.471Z,26.45
2022-12-15T12:02:10.085Z,25.92
2022-12-15T12:04:50.879Z,26.60
2022-12-15T12:07:27.225Z,26.08
2022-12-15T12:10:05.998Z,23.85
2022-12-15T12:12:43.430Z,23.55
2022-12-15T12:15:12.802Z,24.85
2022-12-15T12:17:50.775Z,24.85
2022-12-15T12:20:24.964Z,24.25
2022-12-15T12:23:02.364Z,23.67
2022-12-15T12:25:33.661Z,24.10
2022-12-15T12:28:14.241Z,24.10
2022-12-15T12:33:49.287Z,23.67
2022-12-15T12:36:16.775Z,24.52
2022-12-15T12:38:56.615Z,24.70
2022-12-15T12:41:35.713Z,19.38
2022-12-15T12:44:32.412Z,26.75
2022-12-15T12:47:06.399Z,26.00
2022-12-15T12:49:40.862Z,24.77
2022-12-15T12:52:22.673Z,26.08
2022-12-15T12:54:57.342Z,24.70
2022-12-15T12:57:33.226Z,26.67
2022-12-15T13:00:06.117Z,26.98
2022-12-15T13:02:35.296Z,27.02
2022-12-15T13:05:22.645Z,25.45
2022-12-15T13:08:16.916Z,26.77
2022-12-15T13:10:45.967Z,26.15
2022-12-15T13:13:29.616Z,26.30
2022-12-15T13:16:02.425Z,25.80
2022-12-15T13:18:29.708Z,26.80
2022-12-15T13:20:57.977Z,26.20
2022-12-15T13:23:25.469Z,26.38
2022-12-15T13:25:59.130Z,26.98
2022-12-15T13:28:40.570Z,29.75
2022-12-15T13:31:16.740Z,27.00
2022-12-15T13:33:50.927Z,27.52
2022-12-15T13:36:42.333Z,27.38
2022-12-15T13:39:14.875Z,25.42
2022-12-15T13:44:55.388Z,24.05
2022-12-15T13:50:14.703Z,23.38
2022-12-15T13:53:18.752Z,24.25
2022-12-15T13:55:52.612Z,25.30
2022-12-15T13:58:21.587Z,25.25
2022-12-15T14:00:56.553Z,24.60
2022-12-15T14:03:24.147Z,25.70
2022-12-15T14:05:54.508Z,25.63
2022-12-15T14:08:23.334Z,25.88
2022-12-15T14:10:58.252Z,26.38
2022-12-15T14:13:32.193Z,25.40
2022-12-15T14:16:04.948Z,25.50
2022-12-15T14:18:34.625Z,25.83
2022-12-15T14:21:05.171Z,27.02
2022-12-15T14:24:10.938Z,26.33
2022-12-15T14:26:31.875Z,26.13
2022-12-15T14:29:05.046Z,27.38
2022-12-15T14:31:32.106Z,27.70
2022-12-15T14:34:25.105Z,27.17
2022-12-15T14:36:53.029Z,26.50
2022-12-15T14:39:26.190Z,27.45
2022-12-15T14:41:54.667Z,27.15
2022-12-15T14:47:26.918Z,25.92
2022-12-15T14:49:55.856Z,25.45
2022-12-15T14:52:29.289Z,27.20
2022-12-15T14:55:02.026Z,26.10
2022-12-15T14:57:41.162Z,24.85
2022-12-15T15:00:30.749Z,24.42
2022-12-15T15:03:07.112Z,24.85
2022-12-15T15:03:14.461Z,25.85
2022-12-15T15:05:59.954Z,24.90
2022-12-15T15:08:28.986Z,25.45
2022-12-15T15:10:59.414Z,25.38
2022-12-15T15:13:39.572Z,26.65
2022-12-15T15:18:34.751Z,23.00
2022-12-15T15:21:15.299Z,24.48
2022-12-15T15:23:41.886Z,24.15
2022-12-15T15:26:15.154Z,24.58
2022-12-15T15:28:43.524Z,24.80
2022-12-15T15:31:25.444Z,25.95
2022-12-15T15:33:52.809Z,24.73
2022-12-15T15:36:19.341Z,25.48
2022-12-15T15:38:46.827Z,25.83
2022-12-15T15:41:19.483Z,26.20
2022-12-15T15:43:47.235Z,25.33
2022-12-15T15:46:20.855Z,26.98
2022-12-15T15:49:09.933Z,26.42
2022-12-15T15:51:37.740Z,25.08
2022-12-15T15:54:08.227Z,25.83
2022-12-15T15:56:35.027Z,25.42
2022-12-15T15:59:13.700Z,25.83
2022-12-15T16:01:40.873Z,25.13
2022-12-15T16:04:07.507Z,26.15
2022-12-15T16:06:34.783Z,25.45
2022-12-15T16:09:02.724Z,25.63
2022-12-15T16:11:32.585Z,26.38
2022-12-15T16:13:59.195Z,25.15
2022-12-15T16:16:33.009Z,25.17
2022-12-15T16:18:59.957Z,24.23
2022-12-15T16:21:28.164Z,25.20
2022-12-15T16:23:56.110Z,25.40
2022-12-15T16:26:32.615Z,25.15
2022-12-15T16:28:59.615Z,26.15
2022-12-15T16:31:37.327Z,25.13
2022-12-15T16:34:07.639Z,25.45
2022-12-15T16:36:35.098Z,25.70
2022-12-15T16:39:01.955Z,25.23
2022-12-15T16:41:28.470Z,26.00
2022-12-15T16:43:55.042Z,24.90
2022-12-15T16:46:21.910Z,26.42
2022-12-15T16:48:48.832Z,24.30
2022-12-15T16:51:24.297Z,25.08
2022-12-15T16:53:50.796Z,23.92
2022-12-15T16:56:17.297Z,23.88
2022-12-15T16:58:48.502Z,25.13
2022-12-15T17:01:16.111Z,25.75
2022-12-15T17:03:43.113Z,25.10
2022-12-15T17:06:15.118Z,24.90
2022-12-15T17:08:55.093Z,24.02
2022-12-15T17:11:24.382Z,25.33
2022-12-15T17:13:55.820Z,23.25
2022-12-15T17:16:24.085Z,24.85
2022-12-15T17:18:51.638Z,23.67
2022-12-15T17:21:54.072Z,23.35
2022-12-15T17:24:22.317Z,22.27
2022-12-15T17:26:49.651Z,22.92
2022-12-15T17:29:21.810Z,23.67
2022-12-15T17:31:48.530Z,23.25
2022-12-15T17:34:30.504Z,22.52
2022-12-15T17:36:59.327Z,22.83
2022-12-15T17:39:26.755Z,22.73
2022-12-15T17:42:02.645Z,21.63
2022-12-15T17:44:34.314Z,23.55
2022-12-15T17:47:02.655Z,22.48
2022-12-15T17:49:35.060Z,22.77
2022-12-15T17:52:05.280Z,22.45
2022-12-15T17:54:32.245Z,23.20
2022-12-15T17:56:59.890Z,24.15
2022-12-15T17:59:26.443Z,22.88
2022-12-15T18:01:56.927Z,23.95
2022-12-15T18:04:23.828Z,23.05
2022-12-15T18:06:51.993Z,22.45
2022-12-15T18:09:26.929Z,22.15
2022-12-15T18:11:53.638Z,22.92
2022-12-15T18:14:22.882Z,23.02
2022-12-15T18:16:49.616Z,24.13
2022-12-15T18:19:16.170Z,23.83
2022-12-15T18:21:42.893Z,22.13
2022-12-15T18:24:15.162Z,22.20
2022-12-15T18:26:41.728Z,22.15
2022-12-15T18:29:19.889Z,23.08
2022-12-15T18:31:48.554Z,22.27
2022-12-15T18:34:21.244Z,22.90
2022-12-15T18:36:48.058Z,23.45
2022-12-15T18:39:23.188Z,22.45
2022-12-15T18:41:51.490Z,22.33
2022-12-15T18:44:26.712Z,23.25
2022-12-15T18:46:55.118Z,23.60
2022-12-15T18:49:23.063Z,22.05
2022-12-15T18:51:49.827Z,22.55
2022-12-15T18:54:21.193Z,22.38
2022-12-15T18:56:48.315Z,22.05
2022-12-15T18:59:17.132Z,22.48
2022-12-15T19:01:47.531Z,21.48
2022-12-15T19:04:14.767Z,21.17
2022-12-15T19:06:41.802Z,21.58
2022-12-15T19:09:15.595Z,22.15
2022-12-15T19:12:03.656Z,21.77
2022-12-15T19:14:42.579Z,21.52
2022-12-15T19:17:30.551Z,21.15
2022-12-15T19:20:15.863Z,27.42
2022-12-15T19:22:44.199Z,21.92
2022-12-15T19:25:26.509Z,23.85
2022-12-15T19:28:00.455Z,21.35
2022-12-15T19:30:41.767Z,21.67
2022-12-15T19:33:08.877Z,20.85
2022-12-15T19:35:36.931Z,21.25
2022-12-15T19:38:04.838Z,20.98
2022-12-15T19:40:34.800Z,20.23
2022-12-15T19:43:02.724Z,20.83
2022-12-15T19:45:31.206Z,20.08
2022-12-15T19:47:58.216Z,20.55
2022-12-15T19:50:28.083Z,19.85
2022-12-15T19:52:58.622Z,20.88
2022-12-15T19:55:32.659Z,21.27
2022-12-15T19:58:00.116Z,20.60
2022-12-15T20:00:27.304Z,20.08
2022-12-15T20:02:55.226Z,20.48
2022-12-15T20:05:23.667Z,19.90
2022-12-15T20:07:52.324Z,20.05
2022-12-15T20:10:31.316Z,19.38
2022-12-15T20:12:58.689Z,19.45
2022-12-15T20:15:28.359Z,18.88
2022-12-15T20:17:57.260Z,19.65
2022-12-15T20:20:26.824Z,18.02
2022-12-15T20:22:58.821Z,18.05
2022-12-15T20:25:28.010Z,17.83
2022-12-15T20:27:54.731Z,18.40
2022-12-15T20:30:32.527Z,19.50
2022-12-15T20:33:00.394Z,17.50
2022-12-15T20:35:27.004Z,17.50
2022-12-15T20:37:53.559Z,16.52
2022-12-15T20:40:24.026Z,18.05
2022-12-15T20:42:51.559Z,15.20
2022-12-15T20:45:21.181Z,16.38
2022-12-15T20:47:49.904Z,16.00
2022-12-15T20:50:36.342Z,15.15
2022-12-15T20:53:04.031Z,15.00
2022-12-15T20:55:32.108Z,14.07
2022-12-15T20:57:58.596Z,14.10
2022-12-15T21:00:25.131Z,15.00
2022-12-15T21:02:54.900Z,14.75
2022-12-15T21:05:24.836Z,15.25
2022-12-15T21:07:52.519Z,13.75
2022-12-15T21:10:20.867Z,14.55
2022-12-15T21:12:49.371Z,14.68
2022-12-15T21:15:21.750Z,14.63
2022-12-15T21:18:11.291Z,14.32
2022-12-15T21:20:41.579Z,13.48
2022-12-15T21:23:28.924Z,13.80
2022-12-15T21:25:56.797Z,15.30
2022-12-15T21:28:24.400Z,14.40
2022-12-15T21:30:51.673Z,14.60
2022-12-15T21:33:18.330Z,14.48
2022-12-15T21:35:47.409Z,15.05
2022-12-15T21:38:36.221Z,14.90
2022-12-15T21:41:06.091Z,14.63
2022-12-15T21:43:35.378Z,14.27
2022-12-15T21:46:12.259Z,15.20
2022-12-15T21:48:57.210Z,14.52
2022-12-15T21:51:25.098Z,13.40
2022-12-15T21:53:52.079Z,14.23
2022-12-15T21:56:20.984Z,14.20
2022-12-15T21:58:52.603Z,13.85
2022-12-15T22:01:29.553Z,13.95
2022-12-15T22:03:59.540Z,14.38
2022-12-15T22:06:28.890Z,14.02
2022-12-15T22:09:00.173Z,14.52
2022-12-15T22:11:29.483Z,13.38
2022-12-15T22:13:57.904Z,13.40
2022-12-15T22:16:25.112Z,13.57
2022-12-15T22:18:54.759Z,14.27
2022-12-15T22:21:22.412Z,13.67
2022-12-15T22:23:49.017Z,13.13
2022-12-15T22:26:24.625Z,12.52
2022-12-15T22:28:51.709Z,13.55
2022-12-15T22:31:18.464Z,12.75
2022-12-15T22:33:45.117Z,13.35
2022-12-15T22:36:11.897Z,14.32
2022-12-15T22:38:38.510Z,13.68
2022-12-15T22:41:06.749Z,13.32
2022-12-15T22:43:39.323Z,12.88
2022-12-15T22:46:09.381Z,13.30
2022-12-15T22:48:38.765Z,13.65
2022-12-15T22:51:06.209Z,12.82
2022-12-15T22:53:35.195Z,13.02
2022-12-15T22:56:24.327Z,13.55
2022-12-15T22:58:55.958Z,13.50
2022-12-15T23:01:22.648Z,13.70
2022-12-15T23:03:53.092Z,12.00
2022-12-15T23:06:26.107Z,13.90
2022-12-15T23:08:55.839Z,13.05
2022-12-15T23:11:39.018Z,10.07
2022-12-15T23:14:11.880Z,12.45
2022-12-15T23:16:39.397Z,12.88
2022-12-15T23:19:23.819Z,12.90
2022-12-15T23:21:51.576Z,13.05
2022-12-15T23:24:18.420Z,12.05
2022-12-15T23:26:44.925Z,13.05
2022-12-15T23:29:11.486Z,13.82
2022-12-15T23:31:38.122Z,12.13
2022-12-15T23:34:05.521Z,13.05
2022-12-15T23:36:32.100Z,12.45
2022-12-15T23:38:58.636Z,11.93
2022-12-15T23:41:25.168Z,12.15
2022-12-15T23:43:51.742Z,11.73
2022-12-15T23:46:18.823Z,12.20
2022-12-15T23:48:46.037Z,12.18
2022-12-15T23:51:18.088Z,11.45
2022-12-15T23:53:46.127Z,12.20
2022-12-15T23:56:22.194Z,11.57
2022-12-15T23:58:59.320Z,11.52
